Manheim, Texas
Current Conditions -  °F | °C
As of 11:35 PM on Friday 31 Oct 2014 (Local Time) from KGYB Reporting Station
Clear Clear  
Wind Chill: 54°   Ceiling: Unl
Heat Index: 54°   Visibility: 10mi
Dew Point: 41°   Wind: 6mph
Humidity: 62%   Direction: 10°N
Pressure: 30.35"   Gusts: NA
Location:  30.1897°N, 97.1182°W
Report Text: KGYB 010435Z AUTO 01005KT 10SM CLR 12/05 A3035 RMK AO2 T01220051
Loading
Personal Weather Stations






























Interactive Weather Map
Tropical Storm Tracking
New forecast layout! Learn more

10-Day Weather Forecast

Advertisements
Track Severe Weather on mobile